sensor_id;sensor_type;location;lat;lon;timestamp;temperature;humidity
17986;DHT22;9118;48.122;11.546;2024-01-30T00:01:23;3.30;99.90
17986;DHT22;9118;48.122;11.546;2024-01-30T00:03:49;3.30;99.90
17986;DHT22;9118;48.122;11.546;2024-01-30T00:06:18;3.30;99.90
17986;DHT22;9118;48.122;11.546;2024-01-30T00:08:45;3.30;99.90
17986;DHT22;9118;48.122;11.546;2024-01-30T00:14:13;3.20;99.90
17986;DHT22;9118;48.122;11.546;2024-01-30T00:16:54;3.10;99.90
17986;DHT22;9118;48.122;11.546;2024-01-30T00:19:29;3.20;99.90
17986;DHT22;9118;48.122;11.546;2024-01-30T00:22:05;3.10;99.90
17986;DHT22;9118;48.122;11.546;2024-01-30T00:24:35;3.10;99.90
17986;DHT22;9118;48.122;11.546;2024-01-30T00:32:40;3.20;99.90
17986;DHT22;9118;48.122;11.546;2024-01-30T00:35:07;3.10;99.90
17986;DHT22;9118;48.122;11.546;2024-01-30T00:37:41;3.20;99.90
17986;DHT22;9118;48.122;11.546;2024-01-30T00:40:10;3.10;99.90
17986;DHT22;9118;48.122;11.546;2024-01-30T00:42:46;3.30;99.90
17986;DHT22;9118;48.122;11.546;2024-01-30T00:45:19;3.10;99.90
17986;DHT22;9118;48.122;11.546;2024-01-30T01:01:54;2.90;99.90
17986;DHT22;9118;48.122;11.546;2024-01-30T01:04:34;2.80;99.90
17986;DHT22;9118;48.122;11.546;2024-01-30T01:07:07;2.90;99.90
17986;DHT22;9118;48.122;11.546;2024-01-30T01:09:51;2.90;99.90
17986;DHT22;9118;48.122;11.546;2024-01-30T01:12:19;2.90;99.90
17986;DHT22;9118;48.122;11.546;2024-01-30T01:14:53;2.90;99.90
17986;DHT22;9118;48.122;11.546;2024-01-30T01:17:27;2.70;99.90
17986;DHT22;9118;48.122;11.546;2024-01-30T01:20:08;2.80;99.90
17986;DHT22;9118;48.122;11.546;2024-01-30T01:22:37;2.90;99.90
17986;DHT22;9118;48.122;11.546;2024-01-30T01:25:23;2.90;99.90
17986;DHT22;9118;48.122;11.546;2024-01-30T01:28:08;2.80;99.90
17986;DHT22;9118;48.122;11.546;2024-01-30T01:30:42;2.90;99.90
17986;DHT22;9118;48.122;11.546;2024-01-30T01:44:54;2.80;99.90
17986;DHT22;9118;48.122;11.546;2024-01-30T01:47:22;2.80;99.90
17986;DHT22;9118;48.122;11.546;2024-01-30T01:50:06;2.80;99.90
17986;DHT22;9118;48.122;11.546;2024-01-30T01:52:33;2.70;99.90
17986;DHT22;9118;48.122;11.546;2024-01-30T01:55:08;2.70;99.90
17986;DHT22;9118;48.122;11.546;2024-01-30T01:57:55;3.10;99.90
17986;DHT22;9118;48.122;11.546;2024-01-30T02:00:38;2.60;99.90
17986;DHT22;9118;48.122;11.546;2024-01-30T02:03:26;2.60;99.90
17986;DHT22;9118;48.122;11.546;2024-01-30T02:05:54;2.70;99.90
17986;DHT22;9118;48.122;11.546;2024-01-30T02:08:23;2.70;99.90
17986;DHT22;9118;48.122;11.546;2024-01-30T02:10:53;2.70;99.90
17986;DHT22;9118;48.122;11.546;2024-01-30T02:13:31;2.60;99.90
17986;DHT22;9118;48.122;11.546;2024-01-30T02:16:13;2.60;99.90
17986;DHT22;9118;48.122;11.546;2024-01-30T02:18:45;2.60;99.90
17986;DHT22;9118;48.122;11.546;2024-01-30T02:21:21;2.60;99.90
17986;DHT22;9118;48.122;11.546;2024-01-30T02:23:49;2.60;99.90
17986;DHT22;9118;48.122;11.546;2024-01-30T02:26:18;2.60;99.90
17986;DHT22;9118;48.122;11.546;2024-01-30T02:28:50;2.60;99.90
17986;DHT22;9118;48.122;11.546;2024-01-30T02:31:19;2.50;99.90
17986;DHT22;9118;48.122;11.546;2024-01-30T02:33:46;2.60;99.90
17986;DHT22;9118;48.122;11.546;2024-01-30T02:36:16;2.60;99.90
17986;DHT22;9118;48.122;11.546;2024-01-30T02:38:45;2.60;99.90
17986;DHT22;9118;48.122;11.546;2024-01-30T02:41:13;2.50;99.90
17986;DHT22;9118;48.122;11.546;2024-01-30T02:43:41;2.60;99.90
17986;DHT22;9118;48.122;11.546;2024-01-30T02:46:09;2.60;99.90
17986;DHT22;9118;48.122;11.546;2024-01-30T02:48:36;2.50;99.90
17986;DHT22;9118;48.122;11.546;2024-01-30T02:51:04;2.50;99.90
17986;DHT22;9118;48.122;11.546;2024-01-30T02:53:32;2.50;99.90
17986;DHT22;9118;48.122;11.546;2024-01-30T02:56:15;2.50;99.90
17986;DHT22;9118;48.122;11.546;2024-01-30T02:58:42;2.60;99.90
17986;DHT22;9118;48.122;11.546;2024-01-30T03:01:09;2.40;99.90
17986;DHT22;9118;48.122;11.546;2024-01-30T03:03:38;2.50;99.90
17986;DHT22;9118;48.122;11.546;2024-01-30T03:06:14;2.30;99.90
17986;DHT22;9118;48.122;11.546;2024-01-30T03:08:45;2.70;99.90
17986;DHT22;9118;48.122;11.546;2024-01-30T03:11:16;2.40;99.90
17986;DHT22;9118;48.122;11.546;2024-01-30T03:13:44;2.40;99.90
17986;DHT22;9118;48.122;11.546;2024-01-30T03:16:12;2.40;99.90
17986;DHT22;9118;48.122;11.546;2024-01-30T03:19:11;2.40;99.90
17986;DHT22;9118;48.122;11.546;2024-01-30T03:21:38;2.30;99.90
17986;DHT22;9118;48.122;11.546;2024-01-30T03:24:19;2.40;99.90
17986;DHT22;9118;48.122;11.546;2024-01-30T03:26:49;2.30;99.90
17986;DHT22;9118;48.122;11.546;2024-01-30T03:29:17;2.20;99.90
17986;DHT22;9118;48.122;11.546;2024-01-30T03:31:58;2.30;99.90
17986;DHT22;9118;48.122;11.546;2024-01-30T03:34:33;2.30;99.90
17986;DHT22;9118;48.122;11.546;2024-01-30T03:37:03;2.20;99.90
17986;DHT22;9118;48.122;11.546;2024-01-30T03:39:31;2.30;99.90
17986;DHT22;9118;48.122;11.546;2024-01-30T03:42:03;2.30;99.90
17986;DHT22;9118;48.122;11.546;2024-01-30T03:44:31;2.20;99.90
17986;DHT22;9118;48.122;11.546;2024-01-30T03:46:58;2.30;99.90
17986;DHT22;9118;48.122;11.546;2024-01-30T03:49:26;2.30;99.90
17986;DHT22;9118;48.122;11.546;2024-01-30T03:51:57;2.20;99.90
17986;DHT22;9118;48.122;11.546;2024-01-30T03:54:24;2.30;99.90
17986;DHT22;9118;48.122;11.546;2024-01-30T03:56:52;2.30;99.90
17986;DHT22;9118;48.122;11.546;2024-01-30T03:59:21;2.20;99.90
17986;DHT22;9118;48.122;11.546;2024-01-30T04:01:49;2.20;99.90
17986;DHT22;9118;48.122;11.546;2024-01-30T04:04:17;2.30;99.90
17986;DHT22;9118;48.122;11.546;2024-01-30T04:06:47;2.30;99.90
17986;DHT22;9118;48.122;11.546;2024-01-30T04:09:15;2.50;99.90
17986;DHT22;9118;48.122;11.546;2024-01-30T04:11:45;2.30;99.90
17986;DHT22;9118;48.122;11.546;2024-01-30T04:14:12;2.40;99.90
17986;DHT22;9118;48.122;11.546;2024-01-30T04:16:39;2.30;99.90
17986;DHT22;9118;48.122;11.546;2024-01-30T04:19:07;2.30;99.90
17986;DHT22;9118;48.122;11.546;2024-01-30T04:21:35;2.30;99.90
17986;DHT22;9118;48.122;11.546;2024-01-30T04:24:02;2.20;99.90
17986;DHT22;9118;48.122;11.546;2024-01-30T04:26:31;2.30;99.90
17986;DHT22;9118;48.122;11.546;2024-01-30T04:28:58;2.30;99.90
17986;DHT22;9118;48.122;11.546;2024-01-30T04:31:30;2.20;99.90
17986;DHT22;9118;48.122;11.546;2024-01-30T04:33:58;2.20;99.90
17986;DHT22;9118;48.122;11.546;2024-01-30T04:36:38;2.20;99.90
17986;DHT22;9118;48.122;11.546;2024-01-30T04:39:19;2.20;99.90
17986;DHT22;9118;48.122;11.546;2024-01-30T04:55:18;2.40;99.90
17986;DHT22;9118;48.122;11.546;2024-01-30T04:57:46;2.40;99.90
17986;DHT22;9118;48.122;11.546;2024-01-30T05:00:27;2.30;99.90
17986;DHT22;9118;48.122;11.546;2024-01-30T05:02:55;2.20;99.90
17986;DHT22;9118;48.122;11.546;2024-01-30T05:05:22;2.30;99.90
17986;DHT22;9118;48.122;11.546;2024-01-30T05:08:03;2.20;99.90
17986;DHT22;9118;48.122;11.546;2024-01-30T05:18:46;2.30;99.90
17986;DHT22;9118;48.122;11.546;2024-01-30T05:21:27;2.30;99.90
17986;DHT22;9118;48.122;11.546;2024-01-30T05:23:55;2.30;99.90
17986;DHT22;9118;48.122;11.546;2024-01-30T05:26:31;2.20;99.90
17986;DHT22;9118;48.122;11.546;2024-01-30T05:29:00;2.10;99.90
17986;DHT22;9118;48.122;11.546;2024-01-30T05:31:27;2.20;99.90
17986;DHT22;9118;48.122;11.546;2024-01-30T05:33:57;2.20;99.90
17986;DHT22;9118;48.122;11.546;2024-01-30T05:36:24;2.20;99.90
17986;DHT22;9118;48.122;11.546;2024-01-30T05:38:53;2.30;99.90
17986;DHT22;9118;48.122;11.546;2024-01-30T05:41:21;2.20;99.90
17986;DHT22;9118;48.122;11.546;2024-01-30T05:43:49;2.10;99.90
17986;DHT22;9118;48.122;11.546;2024-01-30T05:46:16;2.10;99.90
17986;DHT22;9118;48.122;11.546;2024-01-30T05:48:59;2.10;99.90
17986;DHT22;9118;48.122;11.546;2024-01-30T05:51:27;2.10;99.90
17986;DHT22;9118;48.122;11.546;2024-01-30T05:53:57;2.10;99.90
17986;DHT22;9118;48.122;11.546;2024-01-30T05:56:40;2.10;99.90
17986;DHT22;9118;48.122;11.546;2024-01-30T05:59:20;2.00;99.90
17986;DHT22;9118;48.122;11.546;2024-01-30T06:02:01;1.90;99.90
17986;DHT22;9118;48.122;11.546;2024-01-30T06:07:17;2.00;99.90
17986;DHT22;9118;48.122;11.546;2024-01-30T06:09:45;1.90;99.90
17986;DHT22;9118;48.122;11.546;2024-01-30T06:12:16;2.00;99.90
17986;DHT22;9118;48.122;11.546;2024-01-30T06:14:55;2.00;99.90
17986;DHT22;9118;48.122;11.546;2024-01-30T06:17:24;1.90;99.90
17986;DHT22;9118;48.122;11.546;2024-01-30T06:19:55;1.90;99.90
17986;DHT22;9118;48.122;11.546;2024-01-30T06:22:25;2.00;99.90
17986;DHT22;9118;48.122;11.546;2024-01-30T06:24:55;2.10;99.90
17986;DHT22;9118;48.122;11.546;2024-01-30T06:27:33;2.10;99.90
17986;DHT22;9118;48.122;11.546;2024-01-30T06:30:03;2.10;99.90
17986;DHT22;9118;48.122;11.546;2024-01-30T06:32:37;2.10;99.90
17986;DHT22;9118;48.122;11.546;2024-01-30T06:35:05;2.10;99.90
17986;DHT22;9118;48.122;11.546;2024-01-30T06:40:31;2.20;99.90
17986;DHT22;9118;48.122;11.546;2024-01-30T06:43:03;2.20;99.90
17986;DHT22;9118;48.122;11.546;2024-01-30T06:45:34;2.20;99.90
17986;DHT22;9118;48.122;11.546;2024-01-30T06:48:02;2.20;99.90
17986;DHT22;9118;48.122;11.546;2024-01-30T06:50:30;2.20;99.90
17986;DHT22;9118;48.122;11.546;2024-01-30T06:52:58;2.20;99.90
17986;DHT22;9118;48.122;11.546;2024-01-30T06:55:28;2.20;99.90
17986;DHT22;9118;48.122;11.546;2024-01-30T07:00:49;2.20;99.90
17986;DHT22;9118;48.122;11.546;2024-01-30T07:03:17;2.20;99.90
17986;DHT22;9118;48.122;11.546;2024-01-30T07:05:45;2.30;99.90
17986;DHT22;9118;48.122;11.546;2024-01-30T07:08:12;2.30;99.90
17986;DHT22;9118;48.122;11.546;2024-01-30T07:10:42;2.30;99.90
17986;DHT22;9118;48.122;11.546;2024-01-30T07:13:10;2.40;99.90
17986;DHT22;9118;48.122;11.546;2024-01-30T07:15:40;2.60;99.90
17986;DHT22;9118;48.122;11.546;2024-01-30T07:18:16;2.40;99.90
17986;DHT22;9118;48.122;11.546;2024-01-30T07:23:45;2.60;99.90
17986;DHT22;9118;48.122;11.546;2024-01-30T07:26:27;2.60;99.90
17986;DHT22;9118;48.122;11.546;2024-01-30T07:29:08;2.70;99.90
17986;DHT22;9118;48.122;11.546;2024-01-30T07:31:49;2.70;99.90
17986;DHT22;9118;48.122;11.546;2024-01-30T07:56:45;3.10;99.90
17986;DHT22;9118;48.122;11.546;2024-01-30T07:59:12;3.00;99.90
17986;DHT22;9118;48.122;11.546;2024-01-30T08:01:39;3.20;99.90
17986;DHT22;9118;48.122;11.546;2024-01-30T08:04:06;3.20;99.90
17986;DHT22;9118;48.122;11.546;2024-01-30T08:06:32;3.30;99.90
17986;DHT22;9118;48.122;11.546;2024-01-30T08:08:59;3.20;99.90
17986;DHT22;9118;48.122;11.546;2024-01-30T08:11:26;3.00;99.90
17986;DHT22;9118;48.122;11.546;2024-01-30T08:13:58;3.40;99.90
17986;DHT22;9118;48.122;11.546;2024-01-30T08:16:25;3.30;99.90
17986;DHT22;9118;48.122;11.546;2024-01-30T08:18:52;3.30;99.90
17986;DHT22;9118;48.122;11.546;2024-01-30T08:21:23;3.40;99.90
17986;DHT22;9118;48.122;11.546;2024-01-30T08:23:50;3.50;99.90
17986;DHT22;9118;48.122;11.546;2024-01-30T08:26:17;3.60;99.90
17986;DHT22;9118;48.122;11.546;2024-01-30T08:28:44;3.60;99.90
17986;DHT22;9118;48.122;11.546;2024-01-30T08:31:12;3.70;99.90
17986;DHT22;9118;48.122;11.546;2024-01-30T08:33:39;3.80;99.90
17986;DHT22;9118;48.122;11.546;2024-01-30T08:36:06;3.90;99.90
17986;DHT22;9118;48.122;11.546;2024-01-30T08:38:33;3.90;99.90
17986;DHT22;9118;48.122;11.546;2024-01-30T08:41:00;4.00;99.90
17986;DHT22;9118;48.122;11.546;2024-01-30T08:43:28;4.20;99.90
17986;DHT22;9118;48.122;11.546;2024-01-30T08:45:55;4.10;99.90
17986;DHT22;9118;48.122;11.546;2024-01-30T08:48:24;4.20;99.90
17986;DHT22;9118;48.122;11.546;2024-01-30T08:50:51;4.40;99.90
17986;DHT22;9118;48.122;11.546;2024-01-30T08:53:18;4.40;99.90
17986;DHT22;9118;48.122;11.546;2024-01-30T08:55:46;4.60;99.90
17986;DHT22;9118;48.122;11.546;2024-01-30T08:58:13;4.70;99.90
17986;DHT22;9118;48.122;11.546;2024-01-30T09:00:40;4.70;99.90
17986;DHT22;9118;48.122;11.546;2024-01-30T09:03:07;4.70;99.90
17986;DHT22;9118;48.122;11.546;2024-01-30T09:05:38;4.90;99.90
17986;DHT22;9118;48.122;11.546;2024-01-30T09:08:05;5.00;99.90
17986;DHT22;9118;48.122;11.546;2024-01-30T09:10:32;5.10;99.90
17986;DHT22;9118;48.122;11.546;2024-01-30T09:12:59;5.10;99.90
17986;DHT22;9118;48.122;11.546;2024-01-30T09:15:26;5.20;99.90
17986;DHT22;9118;48.122;11.546;2024-01-30T09:17:53;5.30;99.90
17986;DHT22;9118;48.122;11.546;2024-01-30T09:20:21;5.60;99.90
17986;DHT22;9118;48.122;11.546;2024-01-30T09:22:50;5.90;99.90
17986;DHT22;9118;48.122;11.546;2024-01-30T09:25:18;6.00;99.90
17986;DHT22;9118;48.122;11.546;2024-01-30T09:27:45;5.90;99.90
17986;DHT22;9118;48.122;11.546;2024-01-30T09:30:13;5.60;99.90
17986;DHT22;9118;48.122;11.546;2024-01-30T09:32:40;6.40;99.90
17986;DHT22;9118;48.122;11.546;2024-01-30T09:35:08;6.40;99.90
17986;DHT22;9118;48.122;11.546;2024-01-30T09:37:37;6.40;99.90
17986;DHT22;9118;48.122;11.546;2024-01-30T09:40:12;6.50;99.90
17986;DHT22;9118;48.122;11.546;2024-01-30T09:42:46;6.50;99.90
17986;DHT22;9118;48.122;11.546;2024-01-30T09:45:17;6.50;99.90
17986;DHT22;9118;48.122;11.546;2024-01-30T09:47:46;6.60;99.90
17986;DHT22;9118;48.122;11.546;2024-01-30T09:50:17;6.60;99.90
17986;DHT22;9118;48.122;11.546;2024-01-30T09:52:44;6.70;99.90
17986;DHT22;9118;48.122;11.546;2024-01-30T09:55:29;6.60;99.90
17986;DHT22;9118;48.122;11.546;2024-01-30T09:57:57;6.70;99.90
17986;DHT22;9118;48.122;11.546;2024-01-30T10:00:26;6.80;99.90
17986;DHT22;9118;48.122;11.546;2024-01-30T10:02:53;7.00;99.90
17986;DHT22;9118;48.122;11.546;2024-01-30T10:05:21;7.00;99.90
17986;DHT22;9118;48.122;11.546;2024-01-30T10:07:52;7.30;99.90
17986;DHT22;9118;48.122;11.546;2024-01-30T10:10:21;7.10;99.90
17986;DHT22;9118;48.122;11.546;2024-01-30T10:12:51;7.40;99.90
17986;DHT22;9118;48.122;11.546;2024-01-30T10:15:19;7.30;99.90
17986;DHT22;9118;48.122;11.546;2024-01-30T10:20:14;7.50;99.90
17986;DHT22;9118;48.122;11.546;2024-01-30T10:25:09;7.80;99.90
17986;DHT22;9118;48.122;11.546;2024-01-30T10:32:33;8.20;99.90
17986;DHT22;9118;48.122;11.546;2024-01-30T10:35:00;8.00;99.90
17986;DHT22;9118;48.122;11.546;2024-01-30T10:37:28;8.00;99.90
17986;DHT22;9118;48.122;11.546;2024-01-30T10:39:58;8.10;99.90
17986;DHT22;9118;48.122;11.546;2024-01-30T10:42:28;8.10;99.90
17986;DHT22;9118;48.122;11.546;2024-01-30T10:45:00;8.30;99.90
17986;DHT22;9118;48.122;11.546;2024-01-30T10:47:29;8.40;99.90
17986;DHT22;9118;48.122;11.546;2024-01-30T10:52:25;8.50;99.90
17986;DHT22;9118;48.122;11.546;2024-01-30T10:54:56;8.60;99.90
17986;DHT22;9118;48.122;11.546;2024-01-30T10:57:23;8.80;99.90
17986;DHT22;9118;48.122;11.546;2024-01-30T10:59:50;8.80;99.90
17986;DHT22;9118;48.122;11.546;2024-01-30T11:02:18;8.80;99.90
17986;DHT22;9118;48.122;11.546;2024-01-30T11:10:06;9.40;99.90
17986;DHT22;9118;48.122;11.546;2024-01-30T11:12:47;9.60;99.90
17986;DHT22;9118;48.122;11.546;2024-01-30T11:17:57;9.80;99.90
17986;DHT22;9118;48.122;11.546;2024-01-30T11:22:53;10.10;99.90
17986;DHT22;9118;48.122;11.546;2024-01-30T11:30:24;10.70;99.90
17986;DHT22;9118;48.122;11.546;2024-01-30T11:35:20;10.80;99.90
17986;DHT22;9118;48.122;11.546;2024-01-30T11:37:47;10.90;99.90
17986;DHT22;9118;48.122;11.546;2024-01-30T11:40:16;11.10;99.90
17986;DHT22;9118;48.122;11.546;2024-01-30T11:42:43;10.90;99.90
17986;DHT22;9118;48.122;11.546;2024-01-30T11:45:12;11.00;99.90
17986;DHT22;9118;48.122;11.546;2024-01-30T11:47:45;11.10;99.90
17986;DHT22;9118;48.122;11.546;2024-01-30T11:50:12;11.20;99.90
17986;DHT22;9118;48.122;11.546;2024-01-30T11:52:39;11.20;99.90
17986;DHT22;9118;48.122;11.546;2024-01-30T11:55:07;11.10;99.90
17986;DHT22;9118;48.122;11.546;2024-01-30T11:57:34;11.30;99.90
17986;DHT22;9118;48.122;11.546;2024-01-30T12:00:02;11.30;99.90
17986;DHT22;9118;48.122;11.546;2024-01-30T12:10:01;11.70;99.90
17986;DHT22;9118;48.122;11.546;2024-01-30T12:20:02;11.70;99.90
17986;DHT22;9118;48.122;11.546;2024-01-30T12:22:29;11.80;99.90
17986;DHT22;9118;48.122;11.546;2024-01-30T12:24:59;11.90;99.90
17986;DHT22;9118;48.122;11.546;2024-01-30T12:34:56;12.40;99.90
17986;DHT22;9118;48.122;11.546;2024-01-30T12:37:24;12.30;99.90
17986;DHT22;9118;48.122;11.546;2024-01-30T12:39:52;12.40;99.90
17986;DHT22;9118;48.122;11.546;2024-01-30T12:42:22;12.40;99.90
17986;DHT22;9118;48.122;11.546;2024-01-30T12:44:49;12.40;99.90
17986;DHT22;9118;48.122;11.546;2024-01-30T12:47:16;12.50;99.90
17986;DHT22;9118;48.122;11.546;2024-01-30T12:49:43;12.60;99.90
17986;DHT22;9118;48.122;11.546;2024-01-30T12:52:10;12.70;99.90
17986;DHT22;9118;48.122;11.546;2024-01-30T13:04:29;13.10;99.90
17986;DHT22;9118;48.122;11.546;2024-01-30T13:06:56;13.10;99.90
17986;DHT22;9118;48.122;11.546;2024-01-30T13:09:23;13.10;99.90
17986;DHT22;9118;48.122;11.546;2024-01-30T13:11:51;13.10;99.90
17986;DHT22;9118;48.122;11.546;2024-01-30T13:14:18;12.90;99.90
17986;DHT22;9118;48.122;11.546;2024-01-30T13:16:45;12.90;99.90
17986;DHT22;9118;48.122;11.546;2024-01-30T13:19:12;12.90;99.90
17986;DHT22;9118;48.122;11.546;2024-01-30T13:21:41;13.00;99.90
17986;DHT22;9118;48.122;11.546;2024-01-30T13:24:09;12.90;99.90
17986;DHT22;9118;48.122;11.546;2024-01-30T13:26:36;12.80;99.90
17986;DHT22;9118;48.122;11.546;2024-01-30T13:29:03;12.80;99.90
17986;DHT22;9118;48.122;11.546;2024-01-30T13:31:30;12.70;99.90
17986;DHT22;9118;48.122;11.546;2024-01-30T13:34:01;12.70;99.90
17986;DHT22;9118;48.122;11.546;2024-01-30T13:36:28;12.70;99.90
17986;DHT22;9118;48.122;11.546;2024-01-30T13:41:25;12.60;99.90
17986;DHT22;9118;48.122;11.546;2024-01-30T13:43:52;12.50;99.90
17986;DHT22;9118;48.122;11.546;2024-01-30T13:46:19;12.60;99.90
17986;DHT22;9118;48.122;11.546;2024-01-30T13:48:46;12.60;99.90
17986;DHT22;9118;48.122;11.546;2024-01-30T13:51:16;12.40;99.90
17986;DHT22;9118;48.122;11.546;2024-01-30T13:53:43;12.50;99.90
17986;DHT22;9118;48.122;11.546;2024-01-30T13:56:10;12.50;99.90
17986;DHT22;9118;48.122;11.546;2024-01-30T13:58:39;12.50;99.90
17986;DHT22;9118;48.122;11.546;2024-01-30T14:01:06;12.50;99.90
17986;DHT22;9118;48.122;11.546;2024-01-30T14:03:33;12.50;99.90
17986;DHT22;9118;48.122;11.546;2024-01-30T14:06:00;12.50;99.90
17986;DHT22;9118;48.122;11.546;2024-01-30T14:08:27;12.50;99.90
17986;DHT22;9118;48.122;11.546;2024-01-30T14:10:54;12.50;99.90
17986;DHT22;9118;48.122;11.546;2024-01-30T14:13:22;12.50;99.90
17986;DHT22;9118;48.122;11.546;2024-01-30T14:15:52;12.40;99.90
17986;DHT22;9118;48.122;11.546;2024-01-30T14:18:19;12.40;99.90
17986;DHT22;9118;48.122;11.546;2024-01-30T14:20:47;12.30;99.90
17986;DHT22;9118;48.122;11.546;2024-01-30T14:23:14;12.30;99.90
17986;DHT22;9118;48.122;11.546;2024-01-30T14:25:42;12.40;99.90
17986;DHT22;9118;48.122;11.546;2024-01-30T14:28:09;12.70;99.90
17986;DHT22;9118;48.122;11.546;2024-01-30T14:30:38;12.30;99.90
17986;DHT22;9118;48.122;11.546;2024-01-30T14:33:16;12.30;99.90
17986;DHT22;9118;48.122;11.546;2024-01-30T14:35:43;12.30;99.90
17986;DHT22;9118;48.122;11.546;2024-01-30T14:38:12;12.30;99.90
17986;DHT22;9118;48.122;11.546;2024-01-30T14:40:41;12.30;99.90
17986;DHT22;9118;48.122;11.546;2024-01-30T14:43:12;12.20;99.90
17986;DHT22;9118;48.122;11.546;2024-01-30T14:45:41;12.10;99.90
17986;DHT22;9118;48.122;11.546;2024-01-30T14:48:11;12.30;99.90
17986;DHT22;9118;48.122;11.546;2024-01-30T14:50:40;12.20;99.90
17986;DHT22;9118;48.122;11.546;2024-01-30T14:53:07;12.20;99.90
17986;DHT22;9118;48.122;11.546;2024-01-30T14:55:37;12.10;99.90
17986;DHT22;9118;48.122;11.546;2024-01-30T14:58:11;12.10;99.90
17986;DHT22;9118;48.122;11.546;2024-01-30T15:00:38;12.10;99.90
17986;DHT22;9118;48.122;11.546;2024-01-30T15:03:06;12.10;99.90
17986;DHT22;9118;48.122;11.546;2024-01-30T15:05:33;12.10;99.90
17986;DHT22;9118;48.122;11.546;2024-01-30T15:08:01;12.00;99.90
17986;DHT22;9118;48.122;11.546;2024-01-30T15:10:29;12.00;99.90
17986;DHT22;9118;48.122;11.546;2024-01-30T15:12:57;12.00;99.90
17986;DHT22;9118;48.122;11.546;2024-01-30T15:15:27;11.80;99.90
17986;DHT22;9118;48.122;11.546;2024-01-30T15:18:00;11.80;99.90
17986;DHT22;9118;48.122;11.546;2024-01-30T15:20:33;11.90;99.90
17986;DHT22;9118;48.122;11.546;2024-01-30T15:23:07;11.80;99.90
17986;DHT22;9118;48.122;11.546;2024-01-30T15:25:35;11.80;99.90
17986;DHT22;9118;48.122;11.546;2024-01-30T15:28:02;11.70;99.90
17986;DHT22;9118;48.122;11.546;2024-01-30T15:30:30;11.60;99.90
17986;DHT22;9118;48.122;11.546;2024-01-30T15:32:57;11.60;99.90
17986;DHT22;9118;48.122;11.546;2024-01-30T15:35:26;11.60;99.90
17986;DHT22;9118;48.122;11.546;2024-01-30T15:37:53;11.50;99.90
17986;DHT22;9118;48.122;11.546;2024-01-30T15:40:24;11.40;99.90
17986;DHT22;9118;48.122;11.546;2024-01-30T15:43:04;11.50;99.90
17986;DHT22;9118;48.122;11.546;2024-01-30T15:45:32;11.30;99.90
17986;DHT22;9118;48.122;11.546;2024-01-30T15:48:00;11.10;99.90
17986;DHT22;9118;48.122;11.546;2024-01-30T15:50:40;11.10;99.90
17986;DHT22;9118;48.122;11.546;2024-01-30T15:53:09;11.00;99.90
17986;DHT22;9118;48.122;11.546;2024-01-30T15:55:38;10.90;99.90
17986;DHT22;9118;48.122;11.546;2024-01-30T15:58:05;10.50;99.90
17986;DHT22;9118;48.122;11.546;2024-01-30T16:00:33;10.70;99.90
17986;DHT22;9118;48.122;11.546;2024-01-30T16:03:04;10.50;99.90
17986;DHT22;9118;48.122;11.546;2024-01-30T16:05:44;10.30;99.90
17986;DHT22;9118;48.122;11.546;2024-01-30T16:08:13;10.40;99.90
17986;DHT22;9118;48.122;11.546;2024-01-30T16:10:42;9.90;99.90
17986;DHT22;9118;48.122;11.546;2024-01-30T16:13:10;10.30;99.90
17986;DHT22;9118;48.122;11.546;2024-01-30T16:15:38;10.20;99.90
17986;DHT22;9118;48.122;11.546;2024-01-30T16:18:06;10.20;99.90
17986;DHT22;9118;48.122;11.546;2024-01-30T16:20:35;10.00;99.90
17986;DHT22;9118;48.122;11.546;2024-01-30T16:23:04;9.80;99.90
17986;DHT22;9118;48.122;11.546;2024-01-30T16:25:31;9.70;99.90
17986;DHT22;9118;48.122;11.546;2024-01-30T16:28:01;9.60;99.90
17986;DHT22;9118;48.122;11.546;2024-01-30T16:30:31;9.50;99.90
17986;DHT22;9118;48.122;11.546;2024-01-30T16:33:07;9.40;99.90
17986;DHT22;9118;48.122;11.546;2024-01-30T16:35:34;9.30;99.90
17986;DHT22;9118;48.122;11.546;2024-01-30T16:38:37;9.20;99.90
